• Join FlightAware (Why Join?)
  • Login
  • US Flag 
Rudolph Flight #1: Arrived! 
11:48AM EST


 

Airport Tracker/Info


-or-


 

Live Flight TrackerFlight Track Log ✈ TAM3242 ✈ 05-Aug-2013 ✈ SBSP / CGH - SBUL / UDI

Flight Track Log - Related Links

Times and Time Zones

All times are in EDT time to prevent confusion due to time zone crossing. See the TAM3242 flight status page for this flight to view local times or setup timezone preferences in your user account.

Time Position Orientation Groundspeed Altitude Reporting Facility
EDT Latitude Longitude Course Direction KTS MPH feet Rate Location/Type
06:09AM -22.5749 -47.0129 343° North  Level Estimated
06:10AM -22.4998 -47.0383 343° North  Level Estimated
06:11AM -22.4246 -47.0636 343° North  Level Estimated
06:12AM -22.3494 -47.0888 343° North  Level Estimated
06:13AM -22.2743 -47.1141 343° North  Level Estimated
06:14AM -22.1991 -47.1393 343° North  Level Estimated
06:15AM -22.1239 -47.1645 343° North  Level Estimated
06:16AM -22.0487 -47.1897 343° North  Level Estimated
06:17AM -21.9736 -47.2148 343° North  Level Estimated
06:18AM -21.8984 -47.2399 343° North  Level Estimated
06:19AM -21.8232 -47.2650 343° North  Level Estimated
06:20AM -21.7480 -47.2901 343° North  Level Estimated
06:21AM -21.6728 -47.3151 343° North  Level Estimated
06:22AM -21.5976 -47.3401 343° North  Level Estimated
06:23AM -21.5224 -47.3651 343° North  Level Estimated
06:24AM -21.4471 -47.3900 343° North  Level Estimated
06:25AM -21.3719 -47.4150 343° North  Level Estimated
06:26AM -21.2967 -47.4399 343° North  Level Estimated
06:27AM -21.2215 -47.4647 343° North  Level Estimated
06:28AM -21.1463 -47.4896 343° North  Level Estimated
06:29AM -21.0710 -47.5144 343° North  Level Estimated
06:30AM -20.9958 -47.5392 343° North  Level Estimated
06:31AM -20.9206 -47.5640 343° North  Level Estimated
06:32AM -20.8453 -47.5887 343° North  Level Estimated
06:33AM -20.7701 -47.6135 343° North  Level Estimated
06:34AM -20.6948 -47.6382 343° North  Level Estimated
06:35AM -20.6196 -47.6629 343° North  Level Estimated
06:36AM -20.5443 -47.6875 343° North  Level Estimated
06:37AM -20.4691 -47.7121 343° North  Level Estimated
06:38AM -20.3938 -47.7368 343° North  Level Estimated
06:39AM -20.3186 -47.7613 343° North  Level Estimated
06:40AM -20.2433 -47.7859 343° North  Level Estimated
06:41AM -20.1680 -47.8104 343° North  Level Estimated
06:42AM -20.0928 -47.8349 343° North  Level Estimated
06:43AM -20.0175 -47.8594 343° North  Level Estimated
06:44AM -19.9422 -47.8839 343° North  Level Estimated
06:45AM -19.8669 -47.9083 343° North  Level Estimated
06:46AM -19.7916 -47.9327 343° North  Level Estimated
06:47AM -19.7163 -47.9571 343° North  Level Estimated
06:48AM -19.6410 -47.9815 343° North  Level Estimated
06:49AM -19.5657 -48.0059 343° North  Level Estimated
06:50AM -19.4904 -48.0302 343° North  Level Estimated
06:51AM -19.4151 -48.0545 343° North  Level Estimated
06:52AM -19.3398 -48.0788 343° North  Level Estimated
06:53AM -19.2645 -48.1030 343° North  Level Estimated
06:54AM -19.1892 -48.1273 343° North  Level Estimated
06:55AM -19.1139 -48.1515 343° North  Level Estimated
06:56AM -19.0386 -48.1757 343° North  Level Estimated
06:57AM -18.9632 -48.1998 343° North  Level Estimated
06:58AM -18.8879 -48.2240 343° North  Level Estimated
06:59AM -18.8828 -48.2256 343° North  Level Estimated
07:00AM -18.8828 -48.2256 223° Southwest  Level Estimated
07:01AM -18.8828 -48.2256 223° Southwest  Level Estimated
07:02AM -18.8828 -48.2256 223° Southwest  Level Estimated
07:03AM -18.8828 -48.2256 223° Southwest  Level Estimated
07:04AM -18.8828 -48.2256 223° Southwest  Level Estimated
07:05AM -18.8828 -48.2256 223° Southwest  Level Estimated
07:06AM -18.8828 -48.2256 223° Southwest  Level Estimated
07:07AM -18.8828 -48.2256 223° Southwest  Level Estimated
07:08AM -18.8828 -48.2256 223° Southwest  Level Estimated
07:09AM -18.8828 -48.2256 223° Southwest  Level Estimated
07:10AM -18.8828 -48.2256 223° Southwest  Level Estimated
07:11AM -18.8828 -48.2256 223° Southwest  Level Estimated
07:12AM -18.8828 -48.2256 223° Southwest  Level Estimated
07:13AM -18.8828 -48.2256 223° Southwest  Level Estimated
07:14AM -18.8828 -48.2256 223° Southwest  Level Estimated